sensor_id;sensor_type;location;lat;lon;timestamp;P1;durP1;ratioP1;P2;durP2;ratioP2
64799;SDS011;51233;51.982;4.594;2023-09-30T00:01:09;7.47;;;3.20;;
64799;SDS011;51233;51.982;4.594;2023-09-30T00:04:10;5.43;;;3.30;;
64799;SDS011;51233;51.982;4.594;2023-09-30T00:07:10;10.15;;;3.40;;
64799;SDS011;51233;51.982;4.594;2023-09-30T00:10:11;4.73;;;3.30;;
64799;SDS011;51233;51.982;4.594;2023-09-30T00:13:11;5.40;;;3.33;;
64799;SDS011;51233;51.982;4.594;2023-09-30T00:16:11;5.90;;;3.47;;
64799;SDS011;51233;51.982;4.594;2023-09-30T00:19:11;7.27;;;3.27;;
64799;SDS011;51233;51.982;4.594;2023-09-30T00:22:11;5.93;;;3.60;;
64799;SDS011;51233;51.982;4.594;2023-09-30T00:25:12;5.37;;;3.47;;
64799;SDS011;51233;51.982;4.594;2023-09-30T00:28:12;7.22;;;3.45;;
64799;SDS011;51233;51.982;4.594;2023-09-30T00:31:12;8.63;;;3.75;;
64799;SDS011;51233;51.982;4.594;2023-09-30T00:34:12;6.30;;;3.60;;
64799;SDS011;51233;51.982;4.594;2023-09-30T00:37:13;8.53;;;3.87;;
64799;SDS011;51233;51.982;4.594;2023-09-30T00:40:13;9.77;;;3.83;;
64799;SDS011;51233;51.982;4.594;2023-09-30T00:43:20;6.53;;;3.90;;
64799;SDS011;51233;51.982;4.594;2023-09-30T00:46:27;8.88;;;3.90;;
64799;SDS011;51233;51.982;4.594;2023-09-30T00:49:28;5.80;;;3.25;;
64799;SDS011;51233;51.982;4.594;2023-09-30T00:52:30;6.67;;;3.60;;
64799;SDS011;51233;51.982;4.594;2023-09-30T00:55:31;6.03;;;3.33;;
64799;SDS011;51233;51.982;4.594;2023-09-30T00:58:32;9.63;;;3.70;;
64799;SDS011;51233;51.982;4.594;2023-09-30T01:01:34;7.95;;;3.90;;
64799;SDS011;51233;51.982;4.594;2023-09-30T01:04:34;8.60;;;3.63;;
64799;SDS011;51233;51.982;4.594;2023-09-30T01:07:35;9.43;;;4.03;;
64799;SDS011;51233;51.982;4.594;2023-09-30T01:10:35;6.53;;;3.57;;
64799;SDS011;51233;51.982;4.594;2023-09-30T01:13:36;8.03;;;3.37;;
64799;SDS011;51233;51.982;4.594;2023-09-30T01:16:36;6.70;;;3.70;;
64799;SDS011;51233;51.982;4.594;2023-09-30T01:19:36;8.63;;;4.20;;
64799;SDS011;51233;51.982;4.594;2023-09-30T01:22:37;8.13;;;4.43;;
64799;SDS011;51233;51.982;4.594;2023-09-30T01:25:37;7.93;;;3.90;;
64799;SDS011;51233;51.982;4.594;2023-09-30T01:28:38;7.70;;;3.85;;
64799;SDS011;51233;51.982;4.594;2023-09-30T01:31:38;5.73;;;4.17;;
64799;SDS011;51233;51.982;4.594;2023-09-30T01:34:39;9.97;;;4.37;;
64799;SDS011;51233;51.982;4.594;2023-09-30T01:37:39;7.30;;;4.30;;
64799;SDS011;51233;51.982;4.594;2023-09-30T01:40:40;9.93;;;3.80;;
64799;SDS011;51233;51.982;4.594;2023-09-30T01:43:40;8.47;;;4.17;;
64799;SDS011;51233;51.982;4.594;2023-09-30T01:46:40;6.50;;;4.17;;
64799;SDS011;51233;51.982;4.594;2023-09-30T01:49:41;9.13;;;4.10;;
64799;SDS011;51233;51.982;4.594;2023-09-30T01:52:41;9.30;;;4.50;;
64799;SDS011;51233;51.982;4.594;2023-09-30T01:55:41;9.48;;;4.20;;
64799;SDS011;51233;51.982;4.594;2023-09-30T01:58:41;8.00;;;4.57;;
64799;SDS011;51233;51.982;4.594;2023-09-30T02:01:42;8.80;;;4.60;;
64799;SDS011;51233;51.982;4.594;2023-09-30T02:04:42;9.88;;;4.60;;
64799;SDS011;51233;51.982;4.594;2023-09-30T02:07:42;10.00;;;4.80;;
64799;SDS011;51233;51.982;4.594;2023-09-30T02:10:43;8.87;;;4.90;;
64799;SDS011;51233;51.982;4.594;2023-09-30T02:13:43;9.23;;;4.28;;
64799;SDS011;51233;51.982;4.594;2023-09-30T02:16:44;11.77;;;5.20;;
64799;SDS011;51233;51.982;4.594;2023-09-30T02:19:44;12.38;;;4.95;;
64799;SDS011;51233;51.982;4.594;2023-09-30T02:22:45;6.73;;;4.43;;
64799;SDS011;51233;51.982;4.594;2023-09-30T02:25:45;10.90;;;5.00;;
64799;SDS011;51233;51.982;4.594;2023-09-30T02:28:45;8.33;;;4.63;;
64799;SDS011;51233;51.982;4.594;2023-09-30T02:31:46;8.77;;;4.95;;
64799;SDS011;51233;51.982;4.594;2023-09-30T02:34:46;9.82;;;4.95;;
64799;SDS011;51233;51.982;4.594;2023-09-30T02:37:47;7.35;;;5.13;;
64799;SDS011;51233;51.982;4.594;2023-09-30T02:40:48;12.17;;;4.70;;
64799;SDS011;51233;51.982;4.594;2023-09-30T02:43:48;10.43;;;5.28;;
64799;SDS011;51233;51.982;4.594;2023-09-30T02:46:49;11.18;;;5.22;;
64799;SDS011;51233;51.982;4.594;2023-09-30T02:49:49;10.35;;;5.45;;
64799;SDS011;51233;51.982;4.594;2023-09-30T02:52:50;10.10;;;5.10;;
64799;SDS011;51233;51.982;4.594;2023-09-30T02:55:50;13.82;;;5.50;;
64799;SDS011;51233;51.982;4.594;2023-09-30T02:58:56;10.90;;;6.10;;
64799;SDS011;51233;51.982;4.594;2023-09-30T03:01:56;9.23;;;5.47;;
64799;SDS011;51233;51.982;4.594;2023-09-30T03:04:56;11.57;;;5.47;;
64799;SDS011;51233;51.982;4.594;2023-09-30T03:07:58;8.68;;;5.53;;
64799;SDS011;51233;51.982;4.594;2023-09-30T03:10:59;12.20;;;6.05;;
64799;SDS011;51233;51.982;4.594;2023-09-30T03:13:59;12.15;;;6.63;;
64799;SDS011;51233;51.982;4.594;2023-09-30T03:17:00;9.77;;;5.78;;
64799;SDS011;51233;51.982;4.594;2023-09-30T03:20:00;10.07;;;5.73;;
64799;SDS011;51233;51.982;4.594;2023-09-30T03:23:01;10.80;;;5.70;;
64799;SDS011;51233;51.982;4.594;2023-09-30T03:26:04;13.80;;;6.22;;
64799;SDS011;51233;51.982;4.594;2023-09-30T03:29:09;11.20;;;6.10;;
64799;SDS011;51233;51.982;4.594;2023-09-30T03:32:10;14.67;;;6.30;;
64799;SDS011;51233;51.982;4.594;2023-09-30T03:35:11;20.00;;;6.43;;
64799;SDS011;51233;51.982;4.594;2023-09-30T03:38:14;8.13;;;5.60;;
64799;SDS011;51233;51.982;4.594;2023-09-30T03:41:18;10.10;;;6.55;;
64799;SDS011;51233;51.982;4.594;2023-09-30T03:44:19;10.90;;;6.78;;
64799;SDS011;51233;51.982;4.594;2023-09-30T03:47:19;9.67;;;6.33;;
64799;SDS011;51233;51.982;4.594;2023-09-30T03:50:20;10.63;;;6.57;;
64799;SDS011;51233;51.982;4.594;2023-09-30T03:53:23;11.65;;;6.55;;
64799;SDS011;51233;51.982;4.594;2023-09-30T03:56:26;13.27;;;6.82;;
64799;SDS011;51233;51.982;4.594;2023-09-30T03:59:26;15.95;;;7.78;;
64799;SDS011;51233;51.982;4.594;2023-09-30T04:02:27;8.27;;;5.75;;
64799;SDS011;51233;51.982;4.594;2023-09-30T04:05:28;12.03;;;7.37;;
64799;SDS011;51233;51.982;4.594;2023-09-30T04:08:36;8.68;;;6.43;;
64799;SDS011;51233;51.982;4.594;2023-09-30T04:11:36;10.27;;;6.57;;
64799;SDS011;51233;51.982;4.594;2023-09-30T04:14:37;11.77;;;6.33;;
64799;SDS011;51233;51.982;4.594;2023-09-30T04:17:37;13.80;;;7.10;;
64799;SDS011;51233;51.982;4.594;2023-09-30T04:20:38;10.73;;;6.70;;
64799;SDS011;51233;51.982;4.594;2023-09-30T04:23:39;14.07;;;7.30;;
64799;SDS011;51233;51.982;4.594;2023-09-30T04:26:41;11.43;;;6.53;;
64799;SDS011;51233;51.982;4.594;2023-09-30T04:29:42;10.07;;;6.50;;
64799;SDS011;51233;51.982;4.594;2023-09-30T04:32:42;12.07;;;6.77;;
64799;SDS011;51233;51.982;4.594;2023-09-30T04:35:43;9.80;;;5.97;;
64799;SDS011;51233;51.982;4.594;2023-09-30T04:38:44;11.80;;;6.72;;
64799;SDS011;51233;51.982;4.594;2023-09-30T04:41:45;10.60;;;6.10;;
64799;SDS011;51233;51.982;4.594;2023-09-30T04:44:46;10.50;;;6.30;;
64799;SDS011;51233;51.982;4.594;2023-09-30T04:47:47;12.18;;;6.35;;
64799;SDS011;51233;51.982;4.594;2023-09-30T04:50:49;13.85;;;6.05;;
64799;SDS011;51233;51.982;4.594;2023-09-30T04:53:49;13.97;;;7.13;;
64799;SDS011;51233;51.982;4.594;2023-09-30T04:56:49;9.53;;;6.27;;
64799;SDS011;51233;51.982;4.594;2023-09-30T04:59:51;10.52;;;5.72;;
64799;SDS011;51233;51.982;4.594;2023-09-30T05:02:51;9.97;;;6.10;;
64799;SDS011;51233;51.982;4.594;2023-09-30T05:05:55;10.68;;;6.22;;
64799;SDS011;51233;51.982;4.594;2023-09-30T05:08:55;8.27;;;5.77;;
64799;SDS011;51233;51.982;4.594;2023-09-30T05:11:55;10.38;;;5.90;;
64799;SDS011;51233;51.982;4.594;2023-09-30T05:14:55;12.15;;;6.15;;
64799;SDS011;51233;51.982;4.594;2023-09-30T05:17:56;10.00;;;6.10;;
64799;SDS011;51233;51.982;4.594;2023-09-30T05:20:56;12.13;;;5.83;;
64799;SDS011;51233;51.982;4.594;2023-09-30T05:23:56;8.77;;;5.83;;
64799;SDS011;51233;51.982;4.594;2023-09-30T05:26:56;11.48;;;6.30;;
64799;SDS011;51233;51.982;4.594;2023-09-30T05:29:56;13.32;;;6.30;;
64799;SDS011;51233;51.982;4.594;2023-09-30T05:32:57;10.50;;;6.07;;
64799;SDS011;51233;51.982;4.594;2023-09-30T05:39:02;10.20;;;6.03;;
64799;SDS011;51233;51.982;4.594;2023-09-30T05:42:03;12.70;;;6.72;;
64799;SDS011;51233;51.982;4.594;2023-09-30T05:45:03;11.67;;;5.87;;
64799;SDS011;51233;51.982;4.594;2023-09-30T05:48:06;7.97;;;5.90;;
64799;SDS011;51233;51.982;4.594;2023-09-30T05:51:06;8.23;;;6.07;;
64799;SDS011;51233;51.982;4.594;2023-09-30T05:54:07;10.50;;;6.13;;
64799;SDS011;51233;51.982;4.594;2023-09-30T05:57:09;9.40;;;6.20;;
64799;SDS011;51233;51.982;4.594;2023-09-30T06:00:11;11.27;;;6.80;;
64799;SDS011;51233;51.982;4.594;2023-09-30T06:03:14;11.68;;;6.07;;
64799;SDS011;51233;51.982;4.594;2023-09-30T06:06:15;13.35;;;7.28;;
64799;SDS011;51233;51.982;4.594;2023-09-30T06:09:15;13.55;;;7.25;;
64799;SDS011;51233;51.982;4.594;2023-09-30T06:12:16;13.47;;;7.13;;
64799;SDS011;51233;51.982;4.594;2023-09-30T06:15:16;13.55;;;7.82;;
64799;SDS011;51233;51.982;4.594;2023-09-30T06:18:21;15.65;;;7.72;;
64799;SDS011;51233;51.982;4.594;2023-09-30T06:21:23;12.00;;;7.50;;
64799;SDS011;51233;51.982;4.594;2023-09-30T06:24:24;14.40;;;8.20;;
64799;SDS011;51233;51.982;4.594;2023-09-30T06:27:24;12.43;;;7.87;;
64799;SDS011;51233;51.982;4.594;2023-09-30T06:30:24;14.27;;;9.20;;
64799;SDS011;51233;51.982;4.594;2023-09-30T06:33:29;12.88;;;8.88;;
64799;SDS011;51233;51.982;4.594;2023-09-30T06:36:29;12.70;;;8.68;;
64799;SDS011;51233;51.982;4.594;2023-09-30T06:39:29;11.67;;;8.27;;
64799;SDS011;51233;51.982;4.594;2023-09-30T06:42:30;15.80;;;8.75;;
64799;SDS011;51233;51.982;4.594;2023-09-30T06:45:30;13.47;;;9.80;;
64799;SDS011;51233;51.982;4.594;2023-09-30T06:48:32;13.05;;;9.45;;
64799;SDS011;51233;51.982;4.594;2023-09-30T06:51:33;19.47;;;9.23;;
64799;SDS011;51233;51.982;4.594;2023-09-30T06:54:33;14.20;;;9.45;;
64799;SDS011;51233;51.982;4.594;2023-09-30T06:57:33;15.27;;;9.70;;
64799;SDS011;51233;51.982;4.594;2023-09-30T07:00:34;15.05;;;9.23;;
64799;SDS011;51233;51.982;4.594;2023-09-30T07:03:35;17.38;;;10.10;;
64799;SDS011;51233;51.982;4.594;2023-09-30T07:06:35;14.97;;;9.30;;
64799;SDS011;51233;51.982;4.594;2023-09-30T07:09:35;15.77;;;10.43;;
64799;SDS011;51233;51.982;4.594;2023-09-30T07:12:36;15.57;;;9.90;;
64799;SDS011;51233;51.982;4.594;2023-09-30T07:15:36;20.30;;;9.60;;
64799;SDS011;51233;51.982;4.594;2023-09-30T07:18:37;18.23;;;10.33;;
64799;SDS011;51233;51.982;4.594;2023-09-30T07:21:37;16.00;;;9.23;;
64799;SDS011;51233;51.982;4.594;2023-09-30T07:24:37;15.33;;;9.53;;
64799;SDS011;51233;51.982;4.594;2023-09-30T07:27:39;14.13;;;9.25;;
64799;SDS011;51233;51.982;4.594;2023-09-30T07:30:39;12.93;;;9.53;;
64799;SDS011;51233;51.982;4.594;2023-09-30T07:33:40;14.07;;;8.93;;
64799;SDS011;51233;51.982;4.594;2023-09-30T07:36:40;13.35;;;9.32;;
64799;SDS011;51233;51.982;4.594;2023-09-30T07:39:40;14.77;;;8.90;;
64799;SDS011;51233;51.982;4.594;2023-09-30T07:42:41;18.27;;;10.97;;
64799;SDS011;51233;51.982;4.594;2023-09-30T07:45:41;14.23;;;9.97;;
64799;SDS011;51233;51.982;4.594;2023-09-30T07:48:43;19.42;;;10.55;;
64799;SDS011;51233;51.982;4.594;2023-09-30T07:51:44;18.02;;;10.82;;
64799;SDS011;51233;51.982;4.594;2023-09-30T07:54:44;14.23;;;9.90;;
64799;SDS011;51233;51.982;4.594;2023-09-30T07:57:44;20.42;;;10.52;;
64799;SDS011;51233;51.982;4.594;2023-09-30T08:00:46;19.60;;;10.20;;
64799;SDS011;51233;51.982;4.594;2023-09-30T08:03:46;16.03;;;10.07;;
64799;SDS011;51233;51.982;4.594;2023-09-30T08:06:46;16.17;;;10.05;;
64799;SDS011;51233;51.982;4.594;2023-09-30T08:09:47;15.55;;;10.10;;
64799;SDS011;51233;51.982;4.594;2023-09-30T08:12:47;17.27;;;10.73;;
64799;SDS011;51233;51.982;4.594;2023-09-30T08:15:49;16.77;;;10.32;;
64799;SDS011;51233;51.982;4.594;2023-09-30T08:18:49;11.75;;;8.75;;
64799;SDS011;51233;51.982;4.594;2023-09-30T08:21:49;16.70;;;9.63;;
64799;SDS011;51233;51.982;4.594;2023-09-30T08:24:50;12.73;;;8.77;;
64799;SDS011;51233;51.982;4.594;2023-09-30T08:27:50;16.57;;;8.67;;
64799;SDS011;51233;51.982;4.594;2023-09-30T08:30:51;17.80;;;9.77;;
64799;SDS011;51233;51.982;4.594;2023-09-30T08:33:54;15.07;;;9.40;;
64799;SDS011;51233;51.982;4.594;2023-09-30T08:36:54;12.23;;;7.85;;
64799;SDS011;51233;51.982;4.594;2023-09-30T08:39:55;14.00;;;8.77;;
64799;SDS011;51233;51.982;4.594;2023-09-30T08:42:55;12.77;;;7.80;;
64799;SDS011;51233;51.982;4.594;2023-09-30T08:45:55;12.88;;;7.95;;
64799;SDS011;51233;51.982;4.594;2023-09-30T08:48:56;12.07;;;7.83;;
64799;SDS011;51233;51.982;4.594;2023-09-30T08:51:57;14.88;;;8.50;;
64799;SDS011;51233;51.982;4.594;2023-09-30T08:54:58;11.73;;;7.80;;
64799;SDS011;51233;51.982;4.594;2023-09-30T08:57:59;14.40;;;7.70;;
64799;SDS011;51233;51.982;4.594;2023-09-30T09:00:59;9.90;;;5.70;;
64799;SDS011;51233;51.982;4.594;2023-09-30T09:04:01;14.10;;;5.90;;
64799;SDS011;51233;51.982;4.594;2023-09-30T09:07:03;12.57;;;5.85;;
64799;SDS011;51233;51.982;4.594;2023-09-30T09:10:07;12.30;;;5.40;;
64799;SDS011;51233;51.982;4.594;2023-09-30T09:13:08;13.40;;;5.70;;
64799;SDS011;51233;51.982;4.594;2023-09-30T09:16:08;10.30;;;4.93;;
64799;SDS011;51233;51.982;4.594;2023-09-30T09:19:15;12.97;;;5.10;;
64799;SDS011;51233;51.982;4.594;2023-09-30T09:22:15;12.00;;;4.32;;
64799;SDS011;51233;51.982;4.594;2023-09-30T09:25:15;10.93;;;5.55;;
64799;SDS011;51233;51.982;4.594;2023-09-30T09:28:15;12.10;;;5.57;;
64799;SDS011;51233;51.982;4.594;2023-09-30T09:31:19;8.47;;;4.40;;
64799;SDS011;51233;51.982;4.594;2023-09-30T09:34:20;11.45;;;4.43;;
64799;SDS011;51233;51.982;4.594;2023-09-30T09:37:20;11.30;;;4.90;;
64799;SDS011;51233;51.982;4.594;2023-09-30T09:40:22;9.35;;;4.03;;
64799;SDS011;51233;51.982;4.594;2023-09-30T09:43:24;14.25;;;4.95;;
64799;SDS011;51233;51.982;4.594;2023-09-30T09:46:24;10.80;;;4.40;;
64799;SDS011;51233;51.982;4.594;2023-09-30T09:49:25;9.68;;;3.75;;
64799;SDS011;51233;51.982;4.594;2023-09-30T09:52:29;11.55;;;3.97;;
64799;SDS011;51233;51.982;4.594;2023-09-30T09:55:29;9.23;;;3.10;;
64799;SDS011;51233;51.982;4.594;2023-09-30T09:58:32;10.40;;;3.33;;
64799;SDS011;51233;51.982;4.594;2023-09-30T10:01:34;9.73;;;3.13;;
64799;SDS011;51233;51.982;4.594;2023-09-30T10:04:36;6.40;;;3.20;;
64799;SDS011;51233;51.982;4.594;2023-09-30T10:07:37;8.75;;;3.05;;
64799;SDS011;51233;51.982;4.594;2023-09-30T10:10:37;6.95;;;3.58;;
64799;SDS011;51233;51.982;4.594;2023-09-30T10:13:57;9.88;;;3.58;;
64799;SDS011;51233;51.982;4.594;2023-09-30T10:17:00;11.85;;;3.55;;
64799;SDS011;51233;51.982;4.594;2023-09-30T10:20:04;6.83;;;2.20;;
64799;SDS011;51233;51.982;4.594;2023-09-30T10:26:16;5.63;;;2.33;;
64799;SDS011;51233;51.982;4.594;2023-09-30T10:29:18;4.70;;;2.35;;
64799;SDS011;51233;51.982;4.594;2023-09-30T10:32:19;5.25;;;2.20;;
64799;SDS011;51233;51.982;4.594;2023-09-30T10:35:19;10.07;;;2.30;;
64799;SDS011;51233;51.982;4.594;2023-09-30T10:44:39;8.38;;;2.63;;
64799;SDS011;51233;51.982;4.594;2023-09-30T10:47:40;5.80;;;2.37;;
64799;SDS011;51233;51.982;4.594;2023-09-30T10:50:52;6.55;;;1.95;;
64799;SDS011;51233;51.982;4.594;2023-09-30T10:53:53;8.18;;;2.08;;
64799;SDS011;51233;51.982;4.594;2023-09-30T10:56:56;8.40;;;2.28;;
64799;SDS011;51233;51.982;4.594;2023-09-30T11:00:09;7.95;;;2.67;;
64799;SDS011;51233;51.982;4.594;2023-09-30T11:06:12;2.15;;;1.67;;
64799;SDS011;51233;51.982;4.594;2023-09-30T11:09:18;9.45;;;3.28;;
64799;SDS011;51233;51.982;4.594;2023-09-30T11:12:19;10.55;;;2.95;;
64799;SDS011;51233;51.982;4.594;2023-09-30T11:15:19;5.93;;;2.42;;
64799;SDS011;51233;51.982;4.594;2023-09-30T11:18:19;9.23;;;2.92;;
64799;SDS011;51233;51.982;4.594;2023-09-30T11:21:21;10.32;;;3.10;;
64799;SDS011;51233;51.982;4.594;2023-09-30T11:24:22;7.43;;;3.30;;
64799;SDS011;51233;51.982;4.594;2023-09-30T11:27:23;10.17;;;3.60;;
64799;SDS011;51233;51.982;4.594;2023-09-30T11:30:24;10.32;;;3.38;;
64799;SDS011;51233;51.982;4.594;2023-09-30T11:33:26;8.90;;;3.13;;
64799;SDS011;51233;51.982;4.594;2023-09-30T11:36:27;10.20;;;3.47;;
64799;SDS011;51233;51.982;4.594;2023-09-30T11:39:27;11.70;;;3.33;;
64799;SDS011;51233;51.982;4.594;2023-09-30T11:42:28;10.55;;;3.20;;
64799;SDS011;51233;51.982;4.594;2023-09-30T11:45:28;9.23;;;3.70;;
64799;SDS011;51233;51.982;4.594;2023-09-30T11:48:28;10.80;;;3.53;;
64799;SDS011;51233;51.982;4.594;2023-09-30T11:51:28;8.50;;;2.60;;
64799;SDS011;51233;51.982;4.594;2023-09-30T11:54:29;7.40;;;2.40;;
64799;SDS011;51233;51.982;4.594;2023-09-30T11:57:30;7.63;;;3.72;;
64799;SDS011;51233;51.982;4.594;2023-09-30T12:00:33;4.88;;;2.00;;
64799;SDS011;51233;51.982;4.594;2023-09-30T12:03:34;10.18;;;4.10;;
64799;SDS011;51233;51.982;4.594;2023-09-30T12:06:39;8.75;;;3.75;;
64799;SDS011;51233;51.982;4.594;2023-09-30T12:09:40;8.37;;;3.50;;
64799;SDS011;51233;51.982;4.594;2023-09-30T12:12:40;11.17;;;3.57;;
64799;SDS011;51233;51.982;4.594;2023-09-30T12:15:41;12.18;;;4.18;;
64799;SDS011;51233;51.982;4.594;2023-09-30T12:18:41;7.27;;;3.50;;
64799;SDS011;51233;51.982;4.594;2023-09-30T12:21:42;9.70;;;4.20;;
64799;SDS011;51233;51.982;4.594;2023-09-30T12:24:42;13.80;;;4.77;;
64799;SDS011;51233;51.982;4.594;2023-09-30T12:27:42;12.00;;;5.00;;
64799;SDS011;51233;51.982;4.594;2023-09-30T12:30:42;12.70;;;5.87;;
64799;SDS011;51233;51.982;4.594;2023-09-30T12:33:43;10.37;;;4.43;;
64799;SDS011;51233;51.982;4.594;2023-09-30T12:36:43;13.60;;;4.10;;
64799;SDS011;51233;51.982;4.594;2023-09-30T12:39:44;13.80;;;4.43;;
64799;SDS011;51233;51.982;4.594;2023-09-30T12:42:45;7.28;;;3.25;;
64799;SDS011;51233;51.982;4.594;2023-09-30T12:45:45;9.93;;;4.20;;
64799;SDS011;51233;51.982;4.594;2023-09-30T12:48:45;13.47;;;3.77;;
64799;SDS011;51233;51.982;4.594;2023-09-30T12:51:46;11.40;;;3.93;;
64799;SDS011;51233;51.982;4.594;2023-09-30T12:54:46;7.87;;;3.80;;
64799;SDS011;51233;51.982;4.594;2023-09-30T12:57:48;13.43;;;3.80;;
64799;SDS011;51233;51.982;4.594;2023-09-30T13:00:48;9.88;;;3.63;;
64799;SDS011;51233;51.982;4.594;2023-09-30T13:03:49;6.38;;;3.42;;
64799;SDS011;51233;51.982;4.594;2023-09-30T13:06:49;7.27;;;3.40;;
64799;SDS011;51233;51.982;4.594;2023-09-30T13:09:50;11.68;;;4.00;;
64799;SDS011;51233;51.982;4.594;2023-09-30T13:12:50;9.70;;;3.73;;
64799;SDS011;51233;51.982;4.594;2023-09-30T13:15:52;9.85;;;3.97;;
64799;SDS011;51233;51.982;4.594;2023-09-30T13:18:52;9.23;;;4.10;;
64799;SDS011;51233;51.982;4.594;2023-09-30T13:21:53;10.40;;;4.60;;
64799;SDS011;51233;51.982;4.594;2023-09-30T13:24:53;12.38;;;4.60;;
64799;SDS011;51233;51.982;4.594;2023-09-30T13:27:53;11.47;;;4.63;;
64799;SDS011;51233;51.982;4.594;2023-09-30T13:30:53;16.48;;;5.32;;
64799;SDS011;51233;51.982;4.594;2023-09-30T13:33:53;15.13;;;4.93;;
64799;SDS011;51233;51.982;4.594;2023-09-30T13:36:54;8.67;;;4.20;;
64799;SDS011;51233;51.982;4.594;2023-09-30T13:39:54;13.45;;;4.53;;
64799;SDS011;51233;51.982;4.594;2023-09-30T13:42:55;7.18;;;3.42;;
64799;SDS011;51233;51.982;4.594;2023-09-30T13:45:57;8.43;;;3.75;;
64799;SDS011;51233;51.982;4.594;2023-09-30T13:48:58;10.93;;;3.67;;
64799;SDS011;51233;51.982;4.594;2023-09-30T13:51:58;15.13;;;4.00;;
64799;SDS011;51233;51.982;4.594;2023-09-30T13:54:58;6.28;;;2.60;;
64799;SDS011;51233;51.982;4.594;2023-09-30T13:57:58;9.60;;;3.07;;
64799;SDS011;51233;51.982;4.594;2023-09-30T14:00:58;7.75;;;2.70;;
64799;SDS011;51233;51.982;4.594;2023-09-30T14:03:59;13.80;;;3.67;;
64799;SDS011;51233;51.982;4.594;2023-09-30T14:06:59;8.03;;;2.70;;
64799;SDS011;51233;51.982;4.594;2023-09-30T14:10:06;7.85;;;2.80;;
64799;SDS011;51233;51.982;4.594;2023-09-30T14:13:06;8.43;;;3.40;;
64799;SDS011;51233;51.982;4.594;2023-09-30T14:16:07;8.02;;;2.88;;
64799;SDS011;51233;51.982;4.594;2023-09-30T14:19:07;7.73;;;3.00;;
64799;SDS011;51233;51.982;4.594;2023-09-30T14:22:07;11.53;;;3.07;;
64799;SDS011;51233;51.982;4.594;2023-09-30T14:25:08;10.70;;;3.03;;
64799;SDS011;51233;51.982;4.594;2023-09-30T14:28:08;12.30;;;3.17;;
64799;SDS011;51233;51.982;4.594;2023-09-30T14:31:08;6.00;;;2.63;;
64799;SDS011;51233;51.982;4.594;2023-09-30T14:34:09;7.73;;;3.33;;
64799;SDS011;51233;51.982;4.594;2023-09-30T14:37:09;6.97;;;3.30;;
64799;SDS011;51233;51.982;4.594;2023-09-30T14:40:10;9.87;;;3.43;;
64799;SDS011;51233;51.982;4.594;2023-09-30T14:43:10;11.00;;;3.93;;
64799;SDS011;51233;51.982;4.594;2023-09-30T14:46:10;5.00;;;2.70;;
64799;SDS011;51233;51.982;4.594;2023-09-30T14:49:11;7.50;;;3.17;;
64799;SDS011;51233;51.982;4.594;2023-09-30T14:52:11;6.50;;;2.63;;
64799;SDS011;51233;51.982;4.594;2023-09-30T14:55:11;6.23;;;2.43;;
64799;SDS011;51233;51.982;4.594;2023-09-30T14:58:12;10.23;;;3.13;;
64799;SDS011;51233;51.982;4.594;2023-09-30T15:01:12;7.90;;;2.93;;
64799;SDS011;51233;51.982;4.594;2023-09-30T15:04:12;5.07;;;2.20;;
64799;SDS011;51233;51.982;4.594;2023-09-30T15:07:13;6.22;;;1.92;;
64799;SDS011;51233;51.982;4.594;2023-09-30T15:10:13;6.60;;;1.85;;
64799;SDS011;51233;51.982;4.594;2023-09-30T15:13:13;8.63;;;2.25;;
64799;SDS011;51233;51.982;4.594;2023-09-30T15:16:14;9.57;;;2.60;;
64799;SDS011;51233;51.982;4.594;2023-09-30T15:19:14;8.48;;;2.40;;
64799;SDS011;51233;51.982;4.594;2023-09-30T15:22:15;6.25;;;1.90;;
64799;SDS011;51233;51.982;4.594;2023-09-30T15:25:15;2.50;;;1.13;;
64799;SDS011;51233;51.982;4.594;2023-09-30T15:28:17;6.38;;;2.03;;
64799;SDS011;51233;51.982;4.594;2023-09-30T15:31:17;9.60;;;2.43;;
64799;SDS011;51233;51.982;4.594;2023-09-30T15:34:17;6.72;;;2.10;;
64799;SDS011;51233;51.982;4.594;2023-09-30T15:37:17;6.30;;;1.87;;
64799;SDS011;51233;51.982;4.594;2023-09-30T15:40:18;6.43;;;2.17;;
64799;SDS011;51233;51.982;4.594;2023-09-30T15:43:19;6.00;;;2.00;;
64799;SDS011;51233;51.982;4.594;2023-09-30T15:46:19;8.87;;;2.27;;
64799;SDS011;51233;51.982;4.594;2023-09-30T15:49:19;4.68;;;2.00;;
64799;SDS011;51233;51.982;4.594;2023-09-30T15:52:19;9.30;;;2.80;;
64799;SDS011;51233;51.982;4.594;2023-09-30T15:55:19;8.93;;;2.30;;
64799;SDS011;51233;51.982;4.594;2023-09-30T15:58:20;9.20;;;2.50;;
64799;SDS011;51233;51.982;4.594;2023-09-30T16:01:20;6.13;;;2.33;;
64799;SDS011;51233;51.982;4.594;2023-09-30T16:04:20;9.32;;;2.70;;
64799;SDS011;51233;51.982;4.594;2023-09-30T16:07:20;8.67;;;2.70;;
64799;SDS011;51233;51.982;4.594;2023-09-30T16:10:20;7.87;;;3.10;;
64799;SDS011;51233;51.982;4.594;2023-09-30T16:13:21;8.50;;;2.53;;
64799;SDS011;51233;51.982;4.594;2023-09-30T16:16:21;6.80;;;2.70;;
64799;SDS011;51233;51.982;4.594;2023-09-30T16:19:21;9.65;;;2.55;;
64799;SDS011;51233;51.982;4.594;2023-09-30T16:22:22;6.20;;;3.03;;
64799;SDS011;51233;51.982;4.594;2023-09-30T16:25:22;9.88;;;2.60;;
64799;SDS011;51233;51.982;4.594;2023-09-30T16:28:22;5.97;;;2.27;;
64799;SDS011;51233;51.982;4.594;2023-09-30T16:31:22;9.53;;;2.73;;
64799;SDS011;51233;51.982;4.594;2023-09-30T16:34:22;8.32;;;2.80;;
64799;SDS011;51233;51.982;4.594;2023-09-30T16:37:23;8.80;;;3.03;;
64799;SDS011;51233;51.982;4.594;2023-09-30T16:40:23;7.88;;;3.03;;
64799;SDS011;51233;51.982;4.594;2023-09-30T16:43:23;8.13;;;3.20;;
64799;SDS011;51233;51.982;4.594;2023-09-30T16:46:23;9.77;;;3.00;;
64799;SDS011;51233;51.982;4.594;2023-09-30T16:49:24;9.50;;;3.47;;
64799;SDS011;51233;51.982;4.594;2023-09-30T16:52:24;13.10;;;2.80;;
64799;SDS011;51233;51.982;4.594;2023-09-30T16:55:24;5.40;;;2.40;;
64799;SDS011;51233;51.982;4.594;2023-09-30T16:58:25;8.23;;;2.75;;
64799;SDS011;51233;51.982;4.594;2023-09-30T17:01:25;11.98;;;3.13;;
64799;SDS011;51233;51.982;4.594;2023-09-30T17:04:25;12.73;;;3.40;;
64799;SDS011;51233;51.982;4.594;2023-09-30T17:07:25;7.43;;;2.93;;
64799;SDS011;51233;51.982;4.594;2023-09-30T17:10:26;7.32;;;2.42;;
64799;SDS011;51233;51.982;4.594;2023-09-30T17:13:26;5.90;;;2.78;;
64799;SDS011;51233;51.982;4.594;2023-09-30T17:16:26;9.87;;;3.03;;
64799;SDS011;51233;51.982;4.594;2023-09-30T17:19:27;7.73;;;3.30;;
64799;SDS011;51233;51.982;4.594;2023-09-30T17:22:27;7.70;;;1.97;;
64799;SDS011;51233;51.982;4.594;2023-09-30T17:25:28;7.07;;;2.27;;
64799;SDS011;51233;51.982;4.594;2023-09-30T17:28:28;7.65;;;2.67;;
64799;SDS011;51233;51.982;4.594;2023-09-30T17:31:28;5.00;;;2.13;;
64799;SDS011;51233;51.982;4.594;2023-09-30T17:34:29;5.32;;;2.10;;
64799;SDS011;51233;51.982;4.594;2023-09-30T17:37:29;10.50;;;2.67;;
64799;SDS011;51233;51.982;4.594;2023-09-30T17:40:29;8.53;;;2.40;;
64799;SDS011;51233;51.982;4.594;2023-09-30T17:43:30;5.05;;;1.88;;
64799;SDS011;51233;51.982;4.594;2023-09-30T17:46:30;8.67;;;2.70;;
64799;SDS011;51233;51.982;4.594;2023-09-30T17:49:30;5.10;;;2.43;;
64799;SDS011;51233;51.982;4.594;2023-09-30T17:52:30;7.73;;;2.30;;
64799;SDS011;51233;51.982;4.594;2023-09-30T17:55:35;6.47;;;2.67;;
64799;SDS011;51233;51.982;4.594;2023-09-30T17:58:35;6.82;;;2.50;;
64799;SDS011;51233;51.982;4.594;2023-09-30T18:01:35;3.50;;;2.30;;
64799;SDS011;51233;51.982;4.594;2023-09-30T18:04:36;6.53;;;2.60;;
64799;SDS011;51233;51.982;4.594;2023-09-30T18:07:41;6.55;;;2.65;;
64799;SDS011;51233;51.982;4.594;2023-09-30T18:10:42;6.27;;;2.47;;
64799;SDS011;51233;51.982;4.594;2023-09-30T18:13:43;6.67;;;2.40;;
64799;SDS011;51233;51.982;4.594;2023-09-30T18:16:44;6.50;;;2.70;;